createdAt,value
2018-06-02T00:00:37.284Z,1012.53
2018-06-02T00:02:39.009Z,1012.51
2018-06-02T00:04:40.448Z,1012.52
2018-06-02T00:06:41.861Z,1012.50
2018-06-02T00:08:43.286Z,1012.48
2018-06-02T00:10:44.706Z,1012.48
2018-06-02T00:12:46.130Z,1012.49
2018-06-02T00:14:47.607Z,1012.53
2018-06-02T00:16:49.024Z,1012.51
2018-06-02T00:18:50.550Z,1012.49
2018-06-02T00:20:51.971Z,1012.48
2018-06-02T00:22:53.394Z,1012.46
2018-06-02T00:24:54.820Z,1012.42
2018-06-02T00:26:56.391Z,1012.43
2018-06-02T00:28:57.815Z,1012.42
2018-06-02T00:30:59.349Z,1012.41
2018-06-02T00:33:00.801Z,1012.42
2018-06-02T00:35:02.385Z,1012.42
2018-06-02T00:37:04.107Z,1012.46
2018-06-02T00:39:05.626Z,1012.44
2018-06-02T00:41:07.115Z,1012.42
2018-06-02T00:43:08.551Z,1012.43
2018-06-02T00:45:10.256Z,1012.44
2018-06-02T00:47:11.999Z,1012.40
2018-06-02T00:49:13.727Z,1012.36
2018-06-02T00:51:15.461Z,1012.34
2018-06-02T00:53:17.157Z,1012.32
2018-06-02T00:55:18.877Z,1012.32
2018-06-02T00:57:20.428Z,1012.31
2018-06-02T00:59:22.170Z,1012.32
2018-06-02T01:01:23.701Z,1012.26
2018-06-02T01:03:25.233Z,1012.29
2018-06-02T01:05:26.822Z,1012.27
2018-06-02T01:07:28.562Z,1012.24
2018-06-02T01:09:30.349Z,1012.23
2018-06-02T01:11:31.838Z,1012.21
2018-06-02T01:13:33.622Z,1012.24
2018-06-02T01:15:35.354Z,1012.21
2018-06-02T01:17:37.111Z,1012.21
2018-06-02T01:19:38.654Z,1012.21
2018-06-02T01:21:40.137Z,1012.23
2018-06-02T01:23:41.661Z,1012.21
2018-06-02T01:25:43.217Z,1012.21
2018-06-02T01:27:44.703Z,1012.21
2018-06-02T01:29:46.471Z,1012.23
2018-06-02T01:31:47.894Z,1012.28
2018-06-02T01:33:49.647Z,1012.24
2018-06-02T01:35:51.402Z,1012.23
2018-06-02T01:37:53.019Z,1012.20
2018-06-02T01:39:54.523Z,1012.20
2018-06-02T01:41:56.247Z,1012.19
2018-06-02T01:43:57.949Z,1012.23
2018-06-02T01:45:59.740Z,1012.23
2018-06-02T01:48:01.545Z,1012.25
2018-06-02T01:50:03.237Z,1012.26
2018-06-02T01:52:05.027Z,1012.29
2018-06-02T01:54:47.461Z,1012.35
2018-06-02T01:56:48.887Z,1012.37
2018-06-02T01:58:50.366Z,1012.35
2018-06-02T02:00:52.401Z,1012.35
2018-06-02T02:02:54.091Z,1012.38
2018-06-02T02:05:36.729Z,1012.37
2018-06-02T02:07:38.155Z,1012.37
2018-06-02T02:09:40.246Z,1012.36
2018-06-02T02:11:41.716Z,1012.37
2018-06-02T02:14:24.128Z,1012.40
2018-06-02T02:16:25.588Z,1012.40
2018-06-02T02:18:26.996Z,1012.35
2018-06-02T02:20:29.030Z,1012.30
2018-06-02T02:22:30.467Z,1012.32
2018-06-02T02:25:12.888Z,1012.34
2018-06-02T02:27:14.313Z,1012.35
2018-06-02T02:29:16.189Z,1012.37
2018-06-02T02:31:17.686Z,1012.37
2018-06-02T02:33:19.305Z,1012.33
2018-06-02T02:36:02.335Z,1012.36
2018-06-02T02:38:03.737Z,1012.31
2018-06-02T02:40:05.172Z,1012.30
2018-06-02T02:42:06.608Z,1012.30
2018-06-02T02:44:49.321Z,1012.26
2018-06-02T02:46:50.768Z,1012.25
2018-06-02T02:48:52.170Z,1012.22
2018-06-02T02:50:53.594Z,1012.20
2018-06-02T02:52:55.086Z,1012.21
2018-06-02T02:55:37.735Z,1012.25
2018-06-02T02:57:39.589Z,1012.26
2018-06-02T02:59:41.009Z,1012.27
2018-06-02T03:01:43.001Z,1012.30
2018-06-02T03:03:44.520Z,1012.31
2018-06-02T03:05:45.945Z,1012.34
2018-06-02T03:07:47.418Z,1012.33
2018-06-02T03:09:48.844Z,1012.36
2018-06-02T03:11:50.330Z,1012.35
2018-06-02T03:13:51.860Z,1012.38
2018-06-02T03:15:53.289Z,1012.37
2018-06-02T03:17:55.038Z,1012.34
2018-06-02T03:19:56.599Z,1012.39
2018-06-02T03:21:58.336Z,1012.34
2018-06-02T03:23:59.857Z,1012.35
2018-06-02T03:26:01.409Z,1012.31
2018-06-02T03:28:02.863Z,1012.36
2018-06-02T03:30:04.709Z,1012.31
2018-06-02T03:32:06.523Z,1012.33
2018-06-02T03:34:08.347Z,1012.32
2018-06-02T03:36:10.180Z,1012.32
2018-06-02T03:38:11.673Z,1012.36
2018-06-02T03:40:13.191Z,1012.39
2018-06-02T03:42:15.015Z,1012.41
2018-06-02T03:44:16.785Z,1012.41
2018-06-02T03:46:18.603Z,1012.38
2018-06-02T03:48:20.441Z,1012.34
2018-06-02T03:50:22.014Z,1012.34
2018-06-02T03:52:23.803Z,1012.35
2018-06-02T03:54:25.284Z,1012.37
2018-06-02T03:56:26.802Z,1012.39
2018-06-02T03:58:28.341Z,1012.35
2018-06-02T04:00:30.183Z,1012.37
2018-06-02T04:02:31.676Z,1012.34
2018-06-02T04:04:33.167Z,1012.35
2018-06-02T04:06:34.661Z,1012.38
2018-06-02T04:08:36.467Z,1012.37
2018-06-02T04:10:38.030Z,1012.42
2018-06-02T04:12:39.542Z,1012.39
2018-06-02T04:14:41.370Z,1012.39
2018-06-02T04:16:42.895Z,1012.36
2018-06-02T04:18:44.369Z,1012.38
2018-06-02T04:20:45.944Z,1012.39
2018-06-02T04:22:47.749Z,1012.43
2018-06-02T04:24:49.301Z,1012.43
2018-06-02T04:26:51.023Z,1012.45
2018-06-02T04:28:52.530Z,1012.45
2018-06-02T04:30:54.037Z,1012.47
2018-06-02T04:32:55.579Z,1012.45
2018-06-02T04:34:57.039Z,1012.51
2018-06-02T04:36:58.574Z,1012.47
2018-06-02T04:39:00.140Z,1012.50
2018-06-02T04:41:01.886Z,1012.49
2018-06-02T04:43:03.371Z,1012.50
2018-06-02T04:45:04.914Z,1012.48
2018-06-02T04:47:06.429Z,1012.49
2018-06-02T04:49:08.189Z,1012.53
2018-06-02T04:51:10.012Z,1012.52
2018-06-02T04:53:11.752Z,1012.55
2018-06-02T04:55:13.314Z,1012.55
2018-06-02T04:57:14.820Z,1012.54
2018-06-02T04:59:16.322Z,1012.55
2018-06-02T05:01:18.112Z,1012.60
2018-06-02T05:03:19.937Z,1012.62
2018-06-02T05:05:21.716Z,1012.62
2018-06-02T05:07:23.220Z,1012.68
2018-06-02T05:09:24.819Z,1012.68
2018-06-02T05:11:26.351Z,1012.65
2018-06-02T05:13:27.869Z,1012.64
2018-06-02T05:16:10.335Z,1012.64
2018-06-02T05:18:11.773Z,1012.68
2018-06-02T05:20:13.193Z,1012.74
2018-06-02T05:22:14.617Z,1012.74
2018-06-02T05:24:57.030Z,1012.79
2018-06-02T05:26:58.494Z,1012.85
2018-06-02T05:28:59.960Z,1012.89
2018-06-02T05:31:01.382Z,1012.87
2018-06-02T05:33:02.838Z,1012.91
2018-06-02T05:35:04.335Z,1012.92
2018-06-02T05:37:05.779Z,1012.92
2018-06-02T05:39:07.204Z,1012.95
2018-06-02T05:41:08.625Z,1012.92
2018-06-02T05:43:10.050Z,1012.94
2018-06-02T05:45:52.554Z,1012.96
2018-06-02T05:47:53.964Z,1012.97
2018-06-02T05:49:55.393Z,1012.95
2018-06-02T05:51:56.979Z,1012.99
2018-06-02T05:54:39.411Z,1012.96
2018-06-02T05:56:40.821Z,1013.00
2018-06-02T05:58:42.251Z,1013.01
2018-06-02T06:00:43.684Z,1013.02
2018-06-02T06:02:45.104Z,1013.03
2018-06-02T06:04:46.530Z,1013.00
2018-06-02T06:06:48.534Z,1013.01
2018-06-02T06:08:50.060Z,1012.97
2018-06-02T06:10:51.537Z,1012.95
2018-06-02T06:12:53.483Z,1012.99
2018-06-02T06:15:35.938Z,1013.01
2018-06-02T06:17:37.368Z,1012.98
2018-06-02T06:19:38.846Z,1012.95
2018-06-02T06:21:40.210Z,1012.96
2018-06-02T06:24:22.720Z,1012.97
2018-06-02T06:26:24.180Z,1012.98
2018-06-02T06:28:25.606Z,1012.95
2018-06-02T06:30:27.130Z,1012.94
2018-06-02T06:32:28.562Z,1012.96
2018-06-02T06:34:29.986Z,1012.99
2018-06-02T06:36:31.892Z,1012.98
2018-06-02T06:38:33.277Z,1013.00
2018-06-02T06:40:34.709Z,1013.00
2018-06-02T06:42:36.232Z,1013.03
2018-06-02T06:44:37.725Z,1013.03
2018-06-02T06:46:39.093Z,1013.05
2018-06-02T06:48:40.517Z,1013.05
2018-06-02T06:50:42.008Z,1013.04
2018-06-02T06:52:43.503Z,1013.06
2018-06-02T06:54:45.476Z,1013.10
2018-06-02T06:56:47.262Z,1013.13
2018-06-02T06:58:48.851Z,1013.10
2018-06-02T07:00:50.686Z,1013.16
2018-06-02T07:02:52.160Z,1013.13
2018-06-02T07:04:53.903Z,1013.16
2018-06-02T07:06:55.409Z,1013.16
2018-06-02T07:08:56.939Z,1013.18
2018-06-02T07:10:58.465Z,1013.16
2018-06-02T07:12:59.996Z,1013.17
2018-06-02T07:15:01.678Z,1013.20
2018-06-02T07:17:03.209Z,1013.19
2018-06-02T07:19:04.719Z,1013.17
2018-06-02T07:21:06.260Z,1013.20
2018-06-02T07:23:07.819Z,1013.20
2018-06-02T07:25:09.322Z,1013.24
2018-06-02T07:27:10.960Z,1013.21
2018-06-02T07:29:12.456Z,1013.19
2018-06-02T07:31:14.036Z,1013.25
2018-06-02T07:33:15.554Z,1013.25
2018-06-02T07:35:17.289Z,1013.28
2018-06-02T07:37:19.118Z,1013.28
2018-06-02T07:39:20.677Z,1013.26
2018-06-02T07:41:22.457Z,1013.29
2018-06-02T07:43:24.246Z,1013.26
2018-06-02T07:46:05.209Z,1013.25
2018-06-02T07:48:06.625Z,1013.21
2018-06-02T07:50:08.195Z,1013.20
2018-06-02T07:52:09.569Z,1013.23
2018-06-02T07:54:11.020Z,1013.22
2018-06-02T07:56:12.776Z,1013.21
2018-06-02T07:58:14.256Z,1013.24
2018-06-02T08:00:15.953Z,1013.24
2018-06-02T08:02:17.529Z,1013.25
2018-06-02T08:04:59.944Z,1013.23
2018-06-02T08:07:01.378Z,1013.20
2018-06-02T08:09:02.932Z,1013.21
2018-06-02T08:11:04.338Z,1013.22
2018-06-02T08:13:05.813Z,1013.22
2018-06-02T08:15:07.388Z,1013.18
2018-06-02T08:17:08.903Z,1013.17
2018-06-02T08:19:10.335Z,1013.16
2018-06-02T08:21:11.765Z,1013.20
2018-06-02T08:23:13.206Z,1013.17
2018-06-02T08:25:55.818Z,1013.16
2018-06-02T08:27:57.557Z,1013.16
2018-06-02T08:29:58.986Z,1013.15
2018-06-02T08:32:00.723Z,1013.17
2018-06-02T08:34:02.142Z,1013.20
2018-06-02T08:36:03.565Z,1013.20
2018-06-02T08:38:05.012Z,1013.22
2018-06-02T08:40:06.532Z,1013.27
2018-06-02T08:42:08.308Z,1013.19
2018-06-02T08:44:50.897Z,1013.26
2018-06-02T08:46:52.327Z,1013.34
2018-06-02T08:48:53.810Z,1013.35
2018-06-02T08:50:55.228Z,1013.35
2018-06-02T08:52:56.656Z,1013.35
2018-06-02T08:55:39.256Z,1013.37
2018-06-02T08:57:40.672Z,1013.39
2018-06-02T08:59:42.094Z,1013.41
2018-06-02T09:01:43.864Z,1013.48
2018-06-02T09:03:45.288Z,1013.46
2018-06-02T09:05:46.718Z,1013.46
2018-06-02T09:07:48.466Z,1013.47
2018-06-02T09:09:50.071Z,1013.51
2018-06-02T09:11:51.565Z,1013.51
2018-06-02T09:13:53.265Z,1013.52
2018-06-02T09:15:55.015Z,1013.56
2018-06-02T09:17:56.538Z,1013.53
2018-06-02T09:19:58.045Z,1013.55
2018-06-02T09:21:59.585Z,1013.61
2018-06-02T09:24:01.358Z,1013.58
2018-06-02T09:26:02.872Z,1013.59
2018-06-02T09:28:04.411Z,1013.60
2018-06-02T09:30:05.912Z,1013.59
2018-06-02T09:32:07.469Z,1013.59
2018-06-02T09:34:08.968Z,1013.62
2018-06-02T09:36:10.703Z,1013.62
2018-06-02T09:38:12.428Z,1013.60
2018-06-02T09:40:13.915Z,1013.61
2018-06-02T09:42:15.431Z,1013.62
2018-06-02T09:44:16.954Z,1013.61
2018-06-02T09:46:18.483Z,1013.61
2018-06-02T09:48:20.037Z,1013.65
2018-06-02T09:50:21.601Z,1013.70
2018-06-02T09:52:23.029Z,1013.69
2018-06-02T09:54:24.631Z,1013.73
2018-06-02T09:56:26.389Z,1013.72
2018-06-02T09:58:28.207Z,1013.68
2018-06-02T10:00:29.664Z,1013.70
2018-06-02T10:02:31.202Z,1013.76
2018-06-02T10:04:32.718Z,1013.74
2018-06-02T10:06:34.241Z,1013.76
2018-06-02T10:08:36.023Z,1013.74
2018-06-02T10:10:37.865Z,1013.78
2018-06-02T10:12:39.535Z,1013.80
2018-06-02T10:15:21.966Z,1013.82
2018-06-02T10:17:23.410Z,1013.79
2018-06-02T10:19:24.837Z,1013.80
2018-06-02T10:21:26.266Z,1013.81
2018-06-02T10:23:27.707Z,1013.78
2018-06-02T10:26:10.239Z,1013.79
2018-06-02T10:28:11.862Z,1013.81
2018-06-02T10:30:13.773Z,1013.75
2018-06-02T10:32:15.212Z,1013.81
2018-06-02T10:34:16.758Z,1013.79
2018-06-02T10:36:59.588Z,1013.81
2018-06-02T10:39:01.050Z,1013.84
2018-06-02T10:41:02.480Z,1013.84
2018-06-02T10:43:03.937Z,1013.88
2018-06-02T10:45:46.541Z,1013.90
2018-06-02T10:47:47.974Z,1013.86
2018-06-02T10:49:49.427Z,1013.90
2018-06-02T10:51:50.876Z,1013.94
2018-06-02T10:54:33.422Z,1013.88
2018-06-02T10:56:34.834Z,1013.93
2018-06-02T10:58:36.401Z,1013.90
2018-06-02T11:00:37.832Z,1013.92
2018-06-02T11:02:39.406Z,1013.93
2018-06-02T11:04:40.864Z,1013.93
2018-06-02T11:06:42.302Z,1013.95
2018-06-02T11:08:43.728Z,1013.87
2018-06-02T11:10:45.163Z,1013.84
2018-06-02T11:12:46.617Z,1013.91
2018-06-02T11:14:48.052Z,1013.87
2018-06-02T11:16:49.601Z,1013.86
2018-06-02T11:18:51.065Z,1013.87
2018-06-02T11:20:52.597Z,1013.85
2018-06-02T11:22:54.032Z,1013.93
2018-06-02T11:24:55.611Z,1013.88
2018-06-02T11:26:57.340Z,1013.92
2018-06-02T11:28:58.776Z,1013.85
2018-06-02T11:31:00.428Z,1013.83
2018-06-02T11:33:01.887Z,1013.82
2018-06-02T11:35:03.485Z,1013.82
2018-06-02T11:37:05.047Z,1013.85
2018-06-02T11:39:06.580Z,1013.85
2018-06-02T11:41:08.250Z,1013.83
2018-06-02T11:43:09.792Z,1013.83
2018-06-02T11:45:11.369Z,1013.80
2018-06-02T11:47:12.875Z,1013.80
2018-06-02T11:49:14.400Z,1013.77
2018-06-02T11:51:15.940Z,1013.79
2018-06-02T11:53:17.687Z,1013.78
2018-06-02T11:55:19.425Z,1013.82
2018-06-02T11:57:20.890Z,1013.79
2018-06-02T11:59:22.380Z,1013.80
2018-06-02T12:01:23.979Z,1013.82
2018-06-02T12:03:25.500Z,1013.85
2018-06-02T12:05:26.996Z,1013.78
2018-06-02T12:07:28.468Z,1013.80
2018-06-02T12:09:30.342Z,1013.80
2018-06-02T12:11:31.818Z,1013.82
2018-06-02T12:13:33.490Z,1013.79
2018-06-02T12:15:35.299Z,1013.79
2018-06-02T12:17:36.815Z,1013.78
2018-06-02T12:19:38.353Z,1013.80
2018-06-02T12:21:40.012Z,1013.83
2018-06-02T12:23:41.583Z,1013.91
2018-06-02T12:25:43.168Z,1013.91
2018-06-02T12:27:45.019Z,1013.91
2018-06-02T12:29:46.514Z,1013.93
2018-06-02T12:31:48.048Z,1013.90
2018-06-02T12:33:49.594Z,1013.90
2018-06-02T12:36:32.155Z,1013.93
2018-06-02T12:38:33.584Z,1013.93
2018-06-02T12:40:35.013Z,1013.93
2018-06-02T12:42:36.440Z,1013.94
2018-06-02T12:45:17.880Z,1013.94
2018-06-02T12:47:19.391Z,1013.93
2018-06-02T12:49:20.804Z,1013.93
2018-06-02T12:51:22.267Z,1013.95
2018-06-02T12:53:23.725Z,1013.91
2018-06-02T12:55:25.123Z,1013.95
2018-06-02T12:57:26.553Z,1013.97
2018-06-02T12:59:28.036Z,1013.92
2018-06-02T13:01:29.468Z,1013.94
2018-06-02T13:03:30.902Z,1013.94
2018-06-02T13:06:13.489Z,1013.95
2018-06-02T13:08:14.887Z,1013.95
2018-06-02T13:10:16.585Z,1013.97
2018-06-02T13:12:18.065Z,1013.92
2018-06-02T13:15:00.584Z,1013.87
2018-06-02T13:17:02.168Z,1013.83
2018-06-02T13:19:03.589Z,1013.88
2018-06-02T13:21:05.379Z,1013.85
2018-06-02T13:23:06.806Z,1013.83
2018-06-02T13:25:08.492Z,1013.80
2018-06-02T13:27:09.915Z,1013.79
2018-06-02T13:29:11.732Z,1013.75
2018-06-02T13:31:13.176Z,1013.74
2018-06-02T13:33:14.600Z,1013.76
2018-06-02T13:35:16.036Z,1013.76
2018-06-02T13:37:17.505Z,1013.76
2018-06-02T13:39:18.881Z,1013.76
2018-06-02T13:41:20.368Z,1013.76
2018-06-02T13:43:21.821Z,1013.77
2018-06-02T13:45:23.278Z,1013.72
2018-06-02T13:47:24.697Z,1013.75
2018-06-02T13:49:26.137Z,1013.69
2018-06-02T13:51:27.575Z,1013.69
2018-06-02T13:53:29.007Z,1013.71
2018-06-02T13:55:30.700Z,1013.71
2018-06-02T13:57:32.169Z,1013.74
2018-06-02T13:59:33.711Z,1013.73
2018-06-02T14:01:35.132Z,1013.72
2018-06-02T14:03:36.648Z,1013.71
2018-06-02T14:05:38.362Z,1013.72
2018-06-02T14:07:39.895Z,1013.72
2018-06-02T14:09:41.312Z,1013.79
2018-06-02T14:11:42.842Z,1013.78
2018-06-02T14:13:44.274Z,1013.77
2018-06-02T14:15:45.705Z,1013.81
2018-06-02T14:17:47.123Z,1013.80
2018-06-02T14:19:48.582Z,1013.78
2018-06-02T14:21:50.029Z,1013.81
2018-06-02T14:23:51.544Z,1013.75
2018-06-02T14:25:53.078Z,1013.73
2018-06-02T14:27:54.637Z,1013.73
2018-06-02T14:29:56.267Z,1013.68
2018-06-02T14:31:57.875Z,1013.67
2018-06-02T14:33:59.353Z,1013.72
2018-06-02T14:36:00.820Z,1013.71
2018-06-02T14:38:02.557Z,1013.73
2018-06-02T14:40:04.405Z,1013.65
2018-06-02T14:42:05.957Z,1013.66
2018-06-02T14:44:07.494Z,1013.64
2018-06-02T14:46:50.148Z,1013.60
2018-06-02T14:48:51.568Z,1013.60
2018-06-02T14:50:53.002Z,1013.58
2018-06-02T14:52:54.427Z,1013.56
2018-06-02T14:55:36.852Z,1013.53
2018-06-02T14:57:38.282Z,1013.61
2018-06-02T14:59:39.715Z,1013.63
2018-06-02T15:01:41.149Z,1013.59
2018-06-02T15:03:42.600Z,1013.53
2018-06-02T15:06:25.029Z,1013.49
2018-06-02T15:08:26.528Z,1013.52
2018-06-02T15:10:27.948Z,1013.52
2018-06-02T15:12:29.378Z,1013.47
2018-06-02T15:14:30.899Z,1013.47
2018-06-02T15:16:32.714Z,1013.41
2018-06-02T15:18:34.525Z,1013.44
2018-06-02T15:20:36.013Z,1013.41
2018-06-02T15:22:37.555Z,1013.42
2018-06-02T15:25:20.227Z,1013.35
2018-06-02T15:27:21.662Z,1013.32
2018-06-02T15:29:23.093Z,1013.33
2018-06-02T15:31:24.580Z,1013.29
2018-06-02T15:33:25.957Z,1013.32
2018-06-02T15:36:08.663Z,1013.36
2018-06-02T15:38:10.071Z,1013.38
2018-06-02T15:40:11.505Z,1013.36
2018-06-02T15:42:12.965Z,1013.37
2018-06-02T15:44:14.366Z,1013.33
2018-06-02T15:46:15.796Z,1013.30
2018-06-02T15:48:17.291Z,1013.32
2018-06-02T15:50:18.746Z,1013.31
2018-06-02T15:52:20.200Z,1013.32
2018-06-02T15:54:21.635Z,1013.29
2018-06-02T15:56:23.076Z,1013.34
2018-06-02T15:58:24.498Z,1013.36
2018-06-02T16:00:25.928Z,1013.38
2018-06-02T16:02:27.566Z,1013.36
2018-06-02T16:04:29.144Z,1013.37
2018-06-02T16:06:30.587Z,1013.38
2018-06-02T16:08:32.027Z,1013.40
2018-06-02T16:10:33.814Z,1013.43
2018-06-02T16:12:35.327Z,1013.38
2018-06-02T16:14:36.849Z,1013.38
2018-06-02T16:16:38.331Z,1013.41
2018-06-02T16:18:39.858Z,1013.47
2018-06-02T16:20:41.418Z,1013.48
2018-06-02T16:22:43.295Z,1013.45
2018-06-02T16:24:44.776Z,1013.43
2018-06-02T16:26:46.318Z,1013.41
2018-06-02T16:28:47.927Z,1013.41
2018-06-02T16:30:49.461Z,1013.41
2018-06-02T16:32:50.986Z,1013.40
2018-06-02T16:34:52.514Z,1013.40
2018-06-02T16:36:54.002Z,1013.36
2018-06-02T16:39:36.600Z,1013.32
2018-06-02T16:41:38.128Z,1013.35
2018-06-02T16:43:39.702Z,1013.38
2018-06-02T16:45:41.111Z,1013.38
2018-06-02T16:47:42.549Z,1013.40
2018-06-02T16:49:43.972Z,1013.34
2018-06-02T16:51:45.411Z,1013.36
2018-06-02T16:53:47.020Z,1013.32
2018-06-02T16:55:48.800Z,1013.35
2018-06-02T16:57:50.405Z,1013.37
2018-06-02T16:59:51.841Z,1013.33
2018-06-02T17:01:53.554Z,1013.37
2018-06-02T17:03:55.092Z,1013.34
2018-06-02T17:05:56.616Z,1013.32
2018-06-02T17:07:58.471Z,1013.34
2018-06-02T17:10:00.197Z,1013.35
2018-06-02T17:12:02.013Z,1013.31
2018-06-02T17:14:03.510Z,1013.30
2018-06-02T17:16:05.028Z,1013.29
2018-06-02T17:18:06.818Z,1013.24
2018-06-02T17:20:08.377Z,1013.19
2018-06-02T17:22:09.919Z,1013.24
2018-06-02T17:24:11.709Z,1013.24
2018-06-02T17:26:13.229Z,1013.31
2018-06-02T17:28:14.771Z,1013.30
2018-06-02T17:30:16.286Z,1013.28
2018-06-02T17:32:17.862Z,1013.30
2018-06-02T17:35:00.445Z,1013.24
2018-06-02T17:37:02.175Z,1013.26
2018-06-02T17:39:03.600Z,1013.29
2018-06-02T17:41:05.203Z,1013.32
2018-06-02T17:43:06.637Z,1013.35
2018-06-02T17:45:08.325Z,1013.35
2018-06-02T17:47:09.781Z,1013.35
2018-06-02T17:49:11.370Z,1013.32
2018-06-02T17:51:12.809Z,1013.37
2018-06-02T17:53:14.234Z,1013.35
2018-06-02T17:55:56.947Z,1013.31
2018-06-02T17:57:58.330Z,1013.33
2018-06-02T17:59:59.839Z,1013.36
2018-06-02T18:02:01.354Z,1013.38
2018-06-02T18:04:02.798Z,1013.40
2018-06-02T18:06:45.373Z,1013.40
2018-06-02T18:08:46.807Z,1013.38
2018-06-02T18:10:48.242Z,1013.36
2018-06-02T18:12:49.761Z,1013.36
2018-06-02T18:15:32.188Z,1013.35
2018-06-02T18:17:33.618Z,1013.38
2018-06-02T18:19:35.054Z,1013.33
2018-06-02T18:21:36.524Z,1013.38
2018-06-02T18:23:37.940Z,1013.40
2018-06-02T18:25:39.380Z,1013.42
2018-06-02T18:27:40.802Z,1013.40
2018-06-02T18:29:42.229Z,1013.38
2018-06-02T18:31:43.765Z,1013.42
2018-06-02T18:33:45.388Z,1013.40
2018-06-02T18:36:28.030Z,1013.41
2018-06-02T18:38:29.463Z,1013.38
2018-06-02T18:40:31.088Z,1013.36
2018-06-02T18:42:32.503Z,1013.35
2018-06-02T18:45:15.177Z,1013.34
2018-06-02T18:47:16.601Z,1013.41
2018-06-02T18:49:18.023Z,1013.40
2018-06-02T18:51:19.831Z,1013.38
2018-06-02T18:53:21.260Z,1013.35
2018-06-02T18:55:22.676Z,1013.32
2018-06-02T18:57:24.343Z,1013.31
2018-06-02T18:59:26.186Z,1013.32
2018-06-02T19:01:27.602Z,1013.29
2018-06-02T19:03:29.039Z,1013.29
2018-06-02T19:05:30.471Z,1013.36
2018-06-02T19:07:31.973Z,1013.32
2018-06-02T19:09:33.393Z,1013.31
2018-06-02T19:11:34.862Z,1013.32
2018-06-02T19:13:36.369Z,1013.33
2018-06-02T19:15:37.923Z,1013.31
2018-06-02T19:17:39.439Z,1013.33
2018-06-02T19:19:40.952Z,1013.34
2018-06-02T19:21:42.383Z,1013.37
2018-06-02T19:23:43.886Z,1013.38
2018-06-02T19:25:45.402Z,1013.42
2018-06-02T19:27:46.950Z,1013.46
2018-06-02T19:29:48.458Z,1013.50
2018-06-02T19:31:50.119Z,1013.56
2018-06-02T19:33:51.892Z,1013.59
2018-06-02T19:35:53.407Z,1013.65
2018-06-02T19:37:54.934Z,1013.67
2018-06-02T19:39:56.443Z,1013.68
2018-06-02T19:41:57.956Z,1013.73
2018-06-02T19:43:59.453Z,1013.75
2018-06-02T19:46:00.937Z,1013.77
2018-06-02T19:48:02.467Z,1013.79
2018-06-02T19:50:03.982Z,1013.83
2018-06-02T19:52:05.826Z,1013.84
2018-06-02T19:54:07.345Z,1013.83
2018-06-02T19:56:08.849Z,1013.89
2018-06-02T19:58:10.688Z,1013.89
2018-06-02T20:00:12.199Z,1013.91
2018-06-02T20:02:14.041Z,1013.96
2018-06-02T20:04:15.489Z,1013.97
2018-06-02T20:06:16.961Z,1013.96
2018-06-02T20:08:18.760Z,1013.98
2018-06-02T20:10:20.401Z,1014.02
2018-06-02T20:12:21.945Z,1013.99
2018-06-02T20:14:23.549Z,1014.01
2018-06-02T20:16:25.065Z,1013.98
2018-06-02T20:18:26.613Z,1013.94
2018-06-02T20:20:28.127Z,1014.01
2018-06-02T20:22:29.645Z,1014.00
2018-06-02T20:25:12.273Z,1013.96
2018-06-02T20:27:13.953Z,1013.98
2018-06-02T20:29:15.575Z,1014.02
2018-06-02T20:31:17.242Z,1014.04
2018-06-02T20:33:18.673Z,1014.04
2018-06-02T20:36:01.274Z,1014.06
2018-06-02T20:38:03.037Z,1014.04
2018-06-02T20:40:04.522Z,1014.10
2018-06-02T20:42:05.947Z,1014.12
2018-06-02T20:44:07.384Z,1014.18
2018-06-02T20:46:49.998Z,1014.20
2018-06-02T20:48:51.420Z,1014.21
2018-06-02T20:50:52.854Z,1014.19
2018-06-02T20:52:54.272Z,1014.16
2018-06-02T20:54:55.847Z,1014.18
2018-06-02T20:56:57.315Z,1014.16
2018-06-02T20:58:58.761Z,1014.19
2018-06-02T21:01:00.186Z,1014.19
2018-06-02T21:03:01.611Z,1014.20
2018-06-02T21:05:44.083Z,1014.20
2018-06-02T21:07:45.539Z,1014.18
2018-06-02T21:09:47.052Z,1014.22
2018-06-02T21:11:48.449Z,1014.23
2018-06-02T21:13:50.081Z,1014.20
2018-06-02T21:16:32.639Z,1014.20
2018-06-02T21:18:34.065Z,1014.20
2018-06-02T21:20:35.492Z,1014.25
2018-06-02T21:22:37.007Z,1014.23
2018-06-02T21:25:19.538Z,1014.26
2018-06-02T21:27:20.934Z,1014.26
2018-06-02T21:29:22.368Z,1014.24
2018-06-02T21:31:23.968Z,1014.24
2018-06-02T21:33:25.525Z,1014.25
2018-06-02T21:36:07.944Z,1014.25
2018-06-02T21:38:09.372Z,1014.27
2018-06-02T21:40:10.791Z,1014.27
2018-06-02T21:42:12.220Z,1014.24
2018-06-02T21:44:13.648Z,1014.30
2018-06-02T21:46:15.233Z,1014.28
2018-06-02T21:48:16.902Z,1014.27
2018-06-02T21:50:18.443Z,1014.29
2018-06-02T21:52:20.896Z,1014.27
2018-06-02T21:54:22.367Z,1014.25
2018-06-02T21:56:23.860Z,1014.28
2018-06-02T21:58:25.720Z,1014.29
2018-06-02T22:00:27.209Z,1014.31
2018-06-02T22:02:28.651Z,1014.34
2018-06-02T22:04:30.080Z,1014.35
2018-06-02T22:06:31.537Z,1014.36
2018-06-02T22:08:32.993Z,1014.38
2018-06-02T22:10:34.486Z,1014.38
2018-06-02T22:12:35.953Z,1014.43
2018-06-02T22:14:37.659Z,1014.41
2018-06-02T22:16:39.182Z,1014.40
2018-06-02T22:18:40.988Z,1014.38
2018-06-02T22:20:42.792Z,1014.35
2018-06-02T22:22:44.274Z,1014.39
2018-06-02T22:24:45.790Z,1014.37
2018-06-02T22:26:47.344Z,1014.39
2018-06-02T22:28:48.788Z,1014.43
2018-06-02T22:30:51.307Z,1014.43
2018-06-02T22:32:52.831Z,1014.39
2018-06-02T22:34:54.335Z,1014.37
2018-06-02T22:36:55.848Z,1014.34
2018-06-02T22:39:38.448Z,1014.32
2018-06-02T22:41:39.870Z,1014.36
2018-06-02T22:43:41.294Z,1014.35
2018-06-02T22:45:42.813Z,1014.37
2018-06-02T22:47:44.240Z,1014.35
2018-06-02T22:49:45.704Z,1014.40
2018-06-02T22:51:47.138Z,1014.37
2018-06-02T22:53:48.579Z,1014.41
2018-06-02T22:55:50.114Z,1014.41
2018-06-02T22:57:51.539Z,1014.43
2018-06-02T22:59:52.967Z,1014.39
2018-06-02T23:01:54.411Z,1014.41
2018-06-02T23:03:55.842Z,1014.41
2018-06-02T23:05:57.264Z,1014.42
2018-06-02T23:07:58.772Z,1014.37
2018-06-02T23:10:00.178Z,1014.40
2018-06-02T23:12:01.633Z,1014.43
2018-06-02T23:14:03.082Z,1014.43
2018-06-02T23:16:45.673Z,1014.42
2018-06-02T23:18:47.095Z,1014.39
2018-06-02T23:20:48.725Z,1014.38
2018-06-02T23:22:50.200Z,1014.44
2018-06-02T23:25:32.175Z,1014.48
2018-06-02T23:27:33.546Z,1014.51
2018-06-02T23:29:34.968Z,1014.50
2018-06-02T23:31:36.535Z,1014.53
2018-06-02T23:33:38.182Z,1014.53
2018-06-02T23:36:20.627Z,1014.51
2018-06-02T23:38:22.077Z,1014.53
2018-06-02T23:40:23.507Z,1014.51
2018-06-02T23:42:24.940Z,1014.54
2018-06-02T23:45:07.361Z,1014.48
2018-06-02T23:47:08.800Z,1014.49
2018-06-02T23:49:10.217Z,1014.53
2018-06-02T23:51:11.674Z,1014.51
2018-06-02T23:53:13.128Z,1014.52
2018-06-02T23:55:55.555Z,1014.50
2018-06-02T23:57:56.981Z,1014.48
2018-06-02T23:59:58.408Z,1014.52
